Time;durP1;ratioP1;P1;durP2;ratioP2;P2;SDS_P1;SDS_P2;PMS_P1;PMS_P2;Temp;Humidity;BMP_temperature;BMP_pressure;BME280_temperature;BME280_humidity;BME280_pressure;Samples;Min_cycle;Max_cycle;Signal;HPM_P1;HPM_P2
2022/04/05 00:02:16;;;;;;;5.40;4.05;;;;;;;;;;8337703;28;20755;-55
2022/04/05 00:06:16;;;;;;;5.00;4.20;;;;;;;;;;8338386;28;20029;-55
2022/04/05 00:10:16;;;;;;;5.65;4.10;;;;;;;;;;8338599;28;20031;-55
2022/04/05 00:14:16;;;;;;;5.97;4.00;;;;;;;;;;8338726;28;20086;-55
2022/04/05 00:18:17;;;;;;;7.15;4.05;;;;;;;;;;8337151;28;20043;-55
2022/04/05 00:22:17;;;;;;;7.07;4.43;;;;;;;;;;8336911;28;20094;-55
2022/04/05 00:26:17;;;;;;;5.60;3.97;;;;;;;;;;8328102;28;20032;-54
2022/04/05 00:30:17;;;;;;;7.18;4.82;;;;;;;;;;8336333;28;20032;-55
2022/04/05 00:34:18;;;;;;;11.43;4.63;;;;;;;;;;8337844;28;20162;-54
2022/04/05 00:38:18;;;;;;;5.22;4.35;;;;;;;;;;8336808;28;20028;-55
2022/04/05 00:42:19;;;;;;;6.07;4.30;;;;;;;;;;8336169;28;20035;-55
2022/04/05 00:46:19;;;;;;;8.32;4.53;;;;;;;;;;8336826;28;20043;-54
2022/04/05 00:50:20;;;;;;;7.60;4.90;;;;;;;;;;8336959;28;20025;-55
2022/04/05 00:54:21;;;;;;;6.40;4.32;;;;;;;;;;8337159;28;20239;-55
2022/04/05 00:58:23;;;;;;;4.80;3.95;;;;;;;;;;8333948;28;20017;-55
2022/04/05 01:02:25;;;;;;;7.88;4.07;;;;;;;;;;8336318;28;20500;-55
2022/04/05 01:06:26;;;;;;;5.97;4.40;;;;;;;;;;8336747;28;20036;-55
2022/04/05 01:10:27;;;;;;;6.22;4.10;;;;;;;;;;8332386;28;20102;-53
2022/04/05 01:14:28;;;;;;;4.60;3.65;;;;;;;;;;8337576;28;20103;-54
2022/04/05 01:18:28;;;;;;;5.32;4.30;;;;;;;;;;8332552;28;20615;-55
2022/04/05 01:22:28;;;;;;;8.13;4.17;;;;;;;;;;8321550;28;20033;-55
2022/04/05 01:26:28;;;;;;;6.32;4.18;;;;;;;;;;8333255;28;20283;-55
2022/04/05 01:30:28;;;;;;;4.10;3.17;;;;;;;;;;8333381;28;20041;-55
2022/04/05 01:34:29;;;;;;;5.65;4.10;;;;;;;;;;8336486;28;20381;-55
2022/04/05 01:38:30;;;;;;;4.82;3.85;;;;;;;;;;8337762;28;20182;-55
2022/04/05 01:42:30;;;;;;;5.53;3.70;;;;;;;;;;8335012;28;20024;-55
2022/04/05 01:46:31;;;;;;;6.10;4.00;;;;;;;;;;8335284;28;20377;-55
2022/04/05 01:50:31;;;;;;;4.75;3.83;;;;;;;;;;8335119;28;20028;-55
2022/04/05 01:54:32;;;;;;;4.35;3.95;;;;;;;;;;8334729;28;20025;-55
2022/04/05 01:58:34;;;;;;;3.95;3.50;;;;;;;;;;8333893;28;20036;-53
2022/04/05 02:02:34;;;;;;;4.63;4.22;;;;;;;;;;8334621;28;20025;-54
2022/04/05 02:06:35;;;;;;;4.57;3.85;;;;;;;;;;8336268;28;20823;-55
2022/04/05 02:10:36;;;;;;;4.28;3.88;;;;;;;;;;8317957;28;20033;-55
2022/04/05 02:14:37;;;;;;;4.20;3.55;;;;;;;;;;8334911;28;20028;-54
2022/04/05 02:18:37;;;;;;;7.00;4.13;;;;;;;;;;8334327;28;20028;-55
2022/04/05 02:22:38;;;;;;;4.10;3.70;;;;;;;;;;8334511;28;20053;-55
2022/04/05 02:26:39;;;;;;;4.85;4.32;;;;;;;;;;8334777;28;20028;-54
2022/04/05 02:30:41;;;;;;;4.22;3.78;;;;;;;;;;8334210;28;20041;-55
2022/04/05 02:34:41;;;;;;;3.42;3.13;;;;;;;;;;8339942;28;20029;-54
2022/04/05 02:38:42;;;;;;;3.83;3.42;;;;;;;;;;8341461;28;20936;-53
2022/04/05 02:42:42;;;;;;;9.02;3.72;;;;;;;;;;8341310;28;20036;-54
2022/04/05 02:46:42;;;;;;;5.05;3.40;;;;;;;;;;8338884;28;20039;-55
2022/04/05 02:50:43;;;;;;;4.03;3.35;;;;;;;;;;8340620;28;20028;-54
2022/04/05 02:54:43;;;;;;;3.70;3.40;;;;;;;;;;8341080;28;20432;-55
2022/04/05 02:58:43;;;;;;;4.30;3.45;;;;;;;;;;8339925;28;20597;-54
2022/04/05 03:02:44;;;;;;;3.80;3.50;;;;;;;;;;8338584;28;20040;-54
2022/04/05 03:06:44;;;;;;;3.55;3.25;;;;;;;;;;8341529;28;20119;-54
2022/04/05 03:10:45;;;;;;;3.97;3.40;;;;;;;;;;8337961;28;20031;-55
2022/04/05 03:14:46;;;;;;;4.13;3.45;;;;;;;;;;8341518;28;20266;-55
2022/04/05 03:18:46;;;;;;;3.85;3.33;;;;;;;;;;8339515;28;20033;-54
2022/04/05 03:22:46;;;;;;;5.23;3.40;;;;;;;;;;8339828;28;20032;-55
2022/04/05 03:26:46;;;;;;;7.85;3.53;;;;;;;;;;8339324;28;20278;-54
2022/04/05 03:30:47;;;;;;;5.40;3.30;;;;;;;;;;8337268;28;20040;-54
2022/04/05 03:34:49;;;;;;;3.72;3.33;;;;;;;;;;8340991;28;20036;-55
2022/04/05 03:38:50;;;;;;;3.90;3.47;;;;;;;;;;8338577;28;20021;-54
2022/04/05 03:42:50;;;;;;;4.13;3.72;;;;;;;;;;8337341;28;20808;-55
2022/04/05 03:46:50;;;;;;;4.65;3.78;;;;;;;;;;8336314;28;20127;-55
2022/04/05 03:50:51;;;;;;;4.63;4.13;;;;;;;;;;8338065;28;20071;-54
2022/04/05 03:54:51;;;;;;;3.90;3.60;;;;;;;;;;8339680;28;20394;-55
2022/04/05 03:58:51;;;;;;;4.88;3.40;;;;;;;;;;8339590;28;20025;-55
2022/04/05 04:02:51;;;;;;;8.85;4.15;;;;;;;;;;8336208;28;20037;-55
2022/04/05 04:06:52;;;;;;;5.07;3.55;;;;;;;;;;8338031;28;20031;-55
2022/04/05 04:10:52;;;;;;;4.47;3.90;;;;;;;;;;8338283;28;20021;-55
2022/04/05 04:14:52;;;;;;;6.15;4.35;;;;;;;;;;8339729;28;20271;-55
2022/04/05 04:18:52;;;;;;;5.45;4.35;;;;;;;;;;8336538;28;20060;-55
2022/04/05 04:22:53;;;;;;;4.65;4.25;;;;;;;;;;8333307;28;20094;-55
2022/04/05 04:26:53;;;;;;;6.32;4.60;;;;;;;;;;8337128;28;20029;-54
2022/04/05 04:30:53;;;;;;;4.00;3.60;;;;;;;;;;8338075;28;20044;-55
2022/04/05 04:34:53;;;;;;;4.68;4.18;;;;;;;;;;8337513;28;20035;-55
2022/04/05 04:38:54;;;;;;;5.65;5.05;;;;;;;;;;8338901;28;20079;-55
2022/04/05 04:42:54;;;;;;;5.20;4.30;;;;;;;;;;8337389;28;20035;-54
2022/04/05 04:46:54;;;;;;;4.28;3.88;;;;;;;;;;8335102;28;20048;-55
2022/04/05 04:50:55;;;;;;;4.75;4.00;;;;;;;;;;8336584;28;20059;-55
2022/04/05 04:54:55;;;;;;;4.27;3.87;;;;;;;;;;8335785;28;20219;-55
2022/04/05 04:58:55;;;;;;;3.78;3.47;;;;;;;;;;8335582;28;20274;-54
2022/04/05 05:02:55;;;;;;;5.13;4.10;;;;;;;;;;8336868;28;20058;-55
2022/04/05 05:06:55;;;;;;;3.58;3.28;;;;;;;;;;8335450;28;20103;-54
2022/04/05 05:10:56;;;;;;;4.22;3.72;;;;;;;;;;8336250;28;20035;-55
2022/04/05 05:14:56;;;;;;;4.30;3.90;;;;;;;;;;8337068;28;20017;-55
2022/04/05 05:18:56;;;;;;;5.32;4.45;;;;;;;;;;8331917;28;20037;-55
2022/04/05 05:22:57;;;;;;;4.47;4.07;;;;;;;;;;8335575;28;20024;-55
2022/04/05 05:26:57;;;;;;;7.53;3.83;;;;;;;;;;8334924;28;20088;-54
2022/04/05 05:30:58;;;;;;;5.03;4.35;;;;;;;;;;8334430;28;20118;-55
2022/04/05 05:34:58;;;;;;;4.35;3.95;;;;;;;;;;8334370;28;20025;-54
2022/04/05 05:38:58;;;;;;;4.22;3.83;;;;;;;;;;8335187;28;20024;-55
2022/04/05 05:42:59;;;;;;;5.07;4.32;;;;;;;;;;8335018;28;20024;-55
2022/04/05 05:47:00;;;;;;;4.65;4.15;;;;;;;;;;8335067;28;20087;-55
2022/04/05 05:51:00;;;;;;;4.05;3.75;;;;;;;;;;8335955;28;20017;-55
2022/04/05 05:55:00;;;;;;;3.72;3.42;;;;;;;;;;8333798;28;20012;-55
2022/04/05 05:59:00;;;;;;;3.55;3.25;;;;;;;;;;8335115;28;20013;-55
2022/04/05 06:03:02;;;;;;;3.83;3.53;;;;;;;;;;8332552;28;20118;-54
2022/04/05 06:07:02;;;;;;;3.72;3.33;;;;;;;;;;8338517;28;20017;-55
2022/04/05 06:11:03;;;;;;;4.63;3.40;;;;;;;;;;8340372;28;20029;-55
2022/04/05 06:15:03;;;;;;;6.23;3.23;;;;;;;;;;8341330;28;20275;-54
2022/04/05 06:19:04;;;;;;;3.88;3.40;;;;;;;;;;8340830;28;20274;-54
2022/04/05 06:23:05;;;;;;;3.95;3.50;;;;;;;;;;8340428;28;20024;-54
2022/04/05 06:27:05;;;;;;;3.85;3.30;;;;;;;;;;8341855;28;20032;-54
2022/04/05 06:31:05;;;;;;;3.70;3.08;;;;;;;;;;8337529;28;20055;-55
2022/04/05 06:35:07;;;;;;;3.10;2.80;;;;;;;;;;8341529;28;20124;-55
2022/04/05 06:39:07;;;;;;;2.83;2.63;;;;;;;;;;8342480;28;20027;-55
2022/04/05 06:43:08;;;;;;;3.10;2.90;;;;;;;;;;8339761;28;20051;-55
2022/04/05 06:47:11;;;;;;;3.08;2.78;;;;;;;;;;8334094;28;20024;-55
2022/04/05 06:51:12;;;;;;;4.33;3.00;;;;;;;;;;8337460;28;21028;-56
2022/04/05 06:55:12;;;;;;;3.05;2.75;;;;;;;;;;8336742;28;20049;-55
2022/04/05 06:59:12;;;;;;;2.88;2.65;;;;;;;;;;8316157;28;20055;-55
2022/04/05 07:03:12;;;;;;;2.97;2.40;;;;;;;;;;8331534;28;20032;-55
2022/04/05 07:07:12;;;;;;;2.73;2.53;;;;;;;;;;8325018;28;20027;-54
2022/04/05 07:11:13;;;;;;;2.58;2.33;;;;;;;;;;8329399;28;20289;-55
2022/04/05 07:15:13;;;;;;;3.15;2.67;;;;;;;;;;8333085;28;20975;-54
2022/04/05 07:19:14;;;;;;;3.17;2.45;;;;;;;;;;8329378;28;20194;-54
2022/04/05 07:23:15;;;;;;;2.78;2.58;;;;;;;;;;8319627;28;20047;-55
2022/04/05 07:27:15;;;;;;;2.58;2.38;;;;;;;;;;8323693;28;20494;-55
2022/04/05 07:31:16;;;;;;;2.30;2.10;;;;;;;;;;8327398;28;20805;-55
2022/04/05 07:35:17;;;;;;;2.20;2.10;;;;;;;;;;8329814;28;20129;-55
2022/04/05 07:39:19;;;;;;;2.92;2.70;;;;;;;;;;8330257;28;20603;-55
2022/04/05 07:43:21;;;;;;;2.75;2.55;;;;;;;;;;8330539;28;20059;-55
2022/04/05 07:47:22;;;;;;;3.30;2.50;;;;;;;;;;8327281;28;20032;-55
2022/04/05 07:51:22;;;;;;;3.40;3.10;;;;;;;;;;8329752;28;20448;-55
2022/04/05 07:55:22;;;;;;;3.13;2.83;;;;;;;;;;8331924;28;20510;-55
2022/04/05 07:59:22;;;;;;;2.97;2.78;;;;;;;;;;8331305;28;20044;-55
2022/04/05 08:03:23;;;;;;;2.92;2.65;;;;;;;;;;8326414;28;20896;-53
2022/04/05 08:07:23;;;;;;;3.05;2.78;;;;;;;;;;8329223;28;20059;-55
2022/04/05 08:11:23;;;;;;;3.45;3.15;;;;;;;;;;8331330;28;20025;-56
2022/04/05 08:15:23;;;;;;;3.35;3.05;;;;;;;;;;8330565;28;20048;-55
2022/04/05 08:19:24;;;;;;;2.80;2.60;;;;;;;;;;8329787;28;20456;-56
2022/04/05 08:23:24;;;;;;;2.80;2.50;;;;;;;;;;8330473;28;20024;-55
2022/04/05 08:27:25;;;;;;;2.75;2.55;;;;;;;;;;8328398;28;20021;-55
2022/04/05 08:31:25;;;;;;;2.90;2.60;;;;;;;;;;8328948;28;20040;-55
2022/04/05 08:35:25;;;;;;;3.33;2.35;;;;;;;;;;8328577;28;20722;-55
2022/04/05 08:39:28;;;;;;;3.00;2.70;;;;;;;;;;8327469;28;20013;-55
2022/04/05 08:43:29;;;;;;;2.50;2.30;;;;;;;;;;8327923;28;20013;-55
2022/04/05 08:47:29;;;;;;;2.63;2.42;;;;;;;;;;8327922;28;20036;-56
2022/04/05 08:51:30;;;;;;;2.25;2.05;;;;;;;;;;8330085;28;20054;-55
2022/04/05 08:55:30;;;;;;;2.25;2.10;;;;;;;;;;8328767;28;20013;-56
2022/04/05 08:59:31;;;;;;;2.20;2.10;;;;;;;;;;8327392;28;20021;-56
2022/04/05 09:03:34;;;;;;;2.40;2.05;;;;;;;;;;8320487;28;20291;-55
2022/04/05 09:07:37;;;;;;;2.22;2.00;;;;;;;;;;8326725;28;20020;-55
2022/04/05 09:11:48;;;;;;;2.55;2.35;;;;;;;;;;8323465;28;20013;-55
2022/04/05 09:15:53;;;;;;;2.13;1.92;;;;;;;;;;8328033;28;20072;-55
2022/04/05 09:19:53;;;;;;;2.30;2.10;;;;;;;;;;8326847;28;21023;-56
2022/04/05 09:24:05;;;;;;;2.00;1.90;;;;;;;;;;8327493;28;20099;-54
2022/04/05 09:28:05;;;;;;;2.00;1.90;;;;;;;;;;8327279;28;20294;-55
2022/04/05 09:32:06;;;;;;;3.85;2.42;;;;;;;;;;8326272;28;20045;-56
2022/04/05 09:36:11;;;;;;;2.35;2.15;;;;;;;;;;8327578;28;20451;-56
2022/04/05 09:40:24;;;;;;;2.53;2.15;;;;;;;;;;8326596;28;20019;-55
2022/04/05 09:44:26;;;;;;;2.15;1.90;;;;;;;;;;8327560;28;20012;-55
2022/04/05 09:48:31;;;;;;;2.47;2.10;;;;;;;;;;8325777;28;20033;-55
2022/04/05 09:52:32;;;;;;;2.20;2.03;;;;;;;;;;8327147;28;20122;-56
2022/04/05 09:56:34;;;;;;;2.42;2.22;;;;;;;;;;8327206;28;20021;-56
2022/04/05 10:00:34;;;;;;;2.70;2.50;;;;;;;;;;8326209;28;20039;-55
2022/04/05 10:04:35;;;;;;;3.25;2.83;;;;;;;;;;8327995;28;20352;-55
2022/04/05 10:08:38;;;;;;;2.67;2.47;;;;;;;;;;8328084;28;20546;-55
2022/04/05 10:12:38;;;;;;;2.50;2.30;;;;;;;;;;8325943;28;20108;-55
2022/04/05 10:16:39;;;;;;;2.70;2.50;;;;;;;;;;8323670;28;20545;-56
2022/04/05 10:20:40;;;;;;;2.67;2.47;;;;;;;;;;8325784;28;20618;-56
2022/04/05 10:24:41;;;;;;;2.97;2.78;;;;;;;;;;8326022;28;20024;-56
2022/04/05 10:28:42;;;;;;;2.88;2.67;;;;;;;;;;8318399;28;20078;-56
2022/04/05 10:32:51;;;;;;;3.33;3.03;;;;;;;;;;8325345;28;20068;-55
2022/04/05 10:37:10;;;;;;;3.45;3.15;;;;;;;;;;8325281;28;20025;-55
2022/04/05 10:41:14;;;;;;;3.53;3.22;;;;;;;;;;8321039;28;20020;-55
2022/04/05 10:45:33;;;;;;;4.00;3.50;;;;;;;;;;8325863;28;20017;-56
2022/04/05 10:49:36;;;;;;;3.40;3.10;;;;;;;;;;8321722;28;20484;-55
2022/04/05 10:53:38;;;;;;;4.10;3.47;;;;;;;;;;8325214;28;20028;-56
2022/04/05 10:57:39;;;;;;;4.70;3.30;;;;;;;;;;8330655;28;20606;-56
2022/04/05 11:01:43;;;;;;;3.30;3.00;;;;;;;;;;8328814;28;20532;-55
2022/04/05 11:05:44;;;;;;;4.30;3.47;;;;;;;;;;8331245;28;20055;-55
2022/04/05 11:09:48;;;;;;;3.42;3.13;;;;;;;;;;8328227;28;20028;-55
2022/04/05 11:14:00;;;;;;;3.40;3.10;;;;;;;;;;8331484;28;20025;-56
2022/04/05 11:18:01;;;;;;;3.83;3.50;;;;;;;;;;8332141;28;20068;-56
2022/04/05 11:22:06;;;;;;;4.00;3.60;;;;;;;;;;8329845;28;20151;-56
2022/04/05 11:26:24;;;;;;;3.88;3.50;;;;;;;;;;8332875;28;20021;-55
2022/04/05 11:30:26;;;;;;;4.13;3.65;;;;;;;;;;8330226;28;20314;-55
2022/04/05 11:34:33;;;;;;;4.25;3.83;;;;;;;;;;8332649;28;20093;-54
2022/04/05 11:38:40;;;;;;;4.90;4.40;;;;;;;;;;8333688;28;20078;-56
2022/04/05 11:42:40;;;;;;;4.45;4.05;;;;;;;;;;8330499;28;20047;-56
2022/04/05 11:46:41;;;;;;;4.80;4.15;;;;;;;;;;8328841;28;20581;-56
2022/04/05 11:50:41;;;;;;;6.57;4.85;;;;;;;;;;8328807;28;20183;-55
2022/04/05 11:59:02;;;;;;;5.53;4.90;;;;;;;;;;8328610;28;20825;-56
2022/04/05 12:03:03;;;;;;;5.28;4.78;;;;;;;;;;8328936;28;20424;-56
2022/04/05 12:07:03;;;;;;;5.60;5.10;;;;;;;;;;8327600;28;20456;-54
2022/04/05 12:11:05;;;;;;;6.00;5.40;;;;;;;;;;8329809;28;20028;-54
2022/04/05 12:15:15;;;;;;;5.95;5.03;;;;;;;;;;8329551;28;20521;-53
2022/04/05 12:19:20;;;;;;;5.60;5.00;;;;;;;;;;8330960;28;20036;-55
2022/04/05 12:23:20;;;;;;;;;;;;;;;;;;8326520;28;20509;-55
2022/04/05 12:27:24;;;;;;;4.97;4.53;;;;;;;;;;8328552;28;20752;-56
2022/04/05 12:31:30;;;;;;;5.45;4.95;;;;;;;;;;8326521;28;20051;-56
2022/04/05 12:35:30;;;;;;;6.07;5.35;;;;;;;;;;8331655;28;20716;-55
2022/04/05 12:39:31;;;;;;;6.20;5.60;;;;;;;;;;8329217;28;20056;-56
2022/04/05 12:43:31;;;;;;;6.20;5.60;;;;;;;;;;8330026;28;20032;-56
2022/04/05 12:47:32;;;;;;;6.30;5.67;;;;;;;;;;8327942;28;20051;-56
2022/04/05 12:51:32;;;;;;;6.18;5.57;;;;;;;;;;8327931;28;20280;-55
2022/04/05 12:55:34;;;;;;;6.20;5.60;;;;;;;;;;8329258;28;20027;-56
2022/04/05 12:59:34;;;;;;;6.88;5.93;;;;;;;;;;8328742;28;20515;-55
2022/04/05 13:03:34;;;;;;;6.57;5.72;;;;;;;;;;8325825;28;20138;-55
2022/04/05 13:07:35;;;;;;;7.63;6.50;;;;;;;;;;8329174;28;20510;-55
2022/04/05 13:11:36;;;;;;;7.35;5.70;;;;;;;;;;8330216;28;20090;-55
2022/04/05 13:15:36;;;;;;;6.22;5.63;;;;;;;;;;8333018;28;20071;-56
2022/04/05 13:19:37;;;;;;;8.02;5.50;;;;;;;;;;8335634;28;20397;-55
2022/04/05 13:23:38;;;;;;;8.85;5.65;;;;;;;;;;8331740;28;20028;-56
2022/04/05 13:27:38;;;;;;;8.90;6.32;;;;;;;;;;8329635;28;20413;-55
2022/04/05 13:31:49;;;;;;;6.72;5.80;;;;;;;;;;8329484;28;20483;-56
2022/04/05 13:35:49;;;;;;;6.50;5.85;;;;;;;;;;8337604;28;20024;-56
2022/04/05 13:39:51;;;;;;;7.33;6.50;;;;;;;;;;8334163;28;20025;-56
2022/04/05 13:43:53;;;;;;;6.28;5.68;;;;;;;;;;8334791;28;20271;-55
2022/04/05 13:47:53;;;;;;;6.60;6.00;;;;;;;;;;8335359;28;20622;-56
2022/04/05 13:51:54;;;;;;;6.88;5.82;;;;;;;;;;8333425;28;20067;-56
2022/04/05 13:55:56;;;;;;;6.03;5.43;;;;;;;;;;8336093;28;20136;-55
2022/04/05 13:59:56;;;;;;;5.78;5.28;;;;;;;;;;8335818;28;20398;-56
2022/04/05 14:03:56;;;;;;;6.10;5.50;;;;;;;;;;8332887;28;20063;-57
2022/04/05 14:07:56;;;;;;;6.68;6.07;;;;;;;;;;8333721;28;20271;-55
2022/04/05 14:11:57;;;;;;;6.57;5.97;;;;;;;;;;8334121;28;20036;-56
2022/04/05 14:15:57;;;;;;;6.38;5.70;;;;;;;;;;8335040;28;20107;-55
2022/04/05 14:19:57;;;;;;;7.80;6.23;;;;;;;;;;8334829;28;20029;-56
2022/04/05 14:23:57;;;;;;;6.47;5.88;;;;;;;;;;8335327;28;20274;-56
2022/04/05 14:27:58;;;;;;;6.95;6.25;;;;;;;;;;8336924;28;20106;-56
2022/04/05 14:32:00;;;;;;;7.55;6.75;;;;;;;;;;8340503;28;20944;-56
2022/04/05 14:36:00;;;;;;;6.90;6.25;;;;;;;;;;8341960;28;20194;-56
2022/04/05 14:40:00;;;;;;;7.68;6.53;;;;;;;;;;8341213;28;20024;-56
2022/04/05 14:44:00;;;;;;;7.53;6.83;;;;;;;;;;8337686;28;20028;-56
2022/04/05 14:48:01;;;;;;;7.45;6.25;;;;;;;;;;8338722;28;20311;-56
2022/04/05 14:52:02;;;;;;;6.93;6.18;;;;;;;;;;8337205;28;20152;-55
2022/04/05 14:56:02;;;;;;;7.40;6.63;;;;;;;;;;8314725;28;20008;-55
2022/04/05 15:00:03;;;;;;;7.43;6.65;;;;;;;;;;8328799;28;20017;-55
2022/04/05 15:04:04;;;;;;;7.72;6.63;;;;;;;;;;8326418;28;20068;-56
2022/04/05 15:08:04;;;;;;;7.18;6.25;;;;;;;;;;8329589;28;20226;-55
2022/04/05 15:12:05;;;;;;;8.02;7.22;;;;;;;;;;8328793;28;20538;-55
2022/04/05 15:16:05;;;;;;;7.15;6.45;;;;;;;;;;8332838;28;20152;-55
2022/04/05 15:20:06;;;;;;;6.78;5.80;;;;;;;;;;8335042;28;20554;-56
2022/04/05 15:24:06;;;;;;;7.30;6.38;;;;;;;;;;8335041;28;20147;-55
2022/04/05 15:28:07;;;;;;;6.97;6.32;;;;;;;;;;8328578;28;20021;-55
2022/04/05 15:32:09;;;;;;;7.90;6.63;;;;;;;;;;8330673;28;20425;-55
2022/04/05 15:36:10;;;;;;;6.70;6.03;;;;;;;;;;8331275;28;20835;-55
2022/04/05 15:40:13;;;;;;;7.18;6.35;;;;;;;;;;8328950;28;20803;-55
2022/04/05 15:44:13;;;;;;;7.07;6.27;;;;;;;;;;8328942;28;20024;-54
2022/04/05 15:48:14;;;;;;;6.55;5.93;;;;;;;;;;8335516;28;20944;-55
2022/04/05 15:52:14;;;;;;;7.13;6.43;;;;;;;;;;8336995;28;20140;-55
2022/04/05 15:56:14;;;;;;;6.72;5.95;;;;;;;;;;8339170;28;20025;-55
2022/04/05 16:00:15;;;;;;;7.00;6.30;;;;;;;;;;8338423;28;20028;-54
2022/04/05 16:04:16;;;;;;;6.97;6.28;;;;;;;;;;8338790;28;20029;-55
2022/04/05 16:08:16;;;;;;;6.88;6.18;;;;;;;;;;8339837;28;20033;-55
2022/04/05 16:12:19;;;;;;;7.45;6.75;;;;;;;;;;8337387;28;20021;-55
2022/04/05 16:16:19;;;;;;;7.20;6.50;;;;;;;;;;8338372;28;20036;-55
2022/04/05 16:20:20;;;;;;;7.47;6.43;;;;;;;;;;8336253;28;20033;-55
2022/04/05 16:24:23;;;;;;;7.25;6.55;;;;;;;;;;8340018;28;20024;-56
2022/04/05 16:28:24;;;;;;;6.60;6.00;;;;;;;;;;8338704;28;20059;-55
2022/04/05 16:32:24;;;;;;;6.55;5.95;;;;;;;;;;8335514;28;20051;-56
2022/04/05 16:36:24;;;;;;;7.35;6.65;;;;;;;;;;8339889;28;20367;-56
2022/04/05 16:40:24;;;;;;;6.80;6.20;;;;;;;;;;8338174;28;20016;-57
2022/04/05 16:44:25;;;;;;;6.55;5.95;;;;;;;;;;8335853;28;20098;-56
2022/04/05 16:48:25;;;;;;;6.05;5.50;;;;;;;;;;8332725;28;20482;-56
2022/04/05 16:52:30;;;;;;;6.30;5.70;;;;;;;;;;8334096;28;20948;-56
2022/04/05 16:56:30;;;;;;;;;;;;;;;;;;8337563;28;20028;-56
2022/04/05 17:00:30;;;;;;;5.65;5.07;;;;;;;;;;8334906;28;20023;-55
2022/04/05 17:04:30;;;;;;;6.95;5.22;;;;;;;;;;8337215;28;20036;-55
2022/04/05 17:08:31;;;;;;;5.78;5.10;;;;;;;;;;8339866;28;20612;-56
2022/04/05 17:12:32;;;;;;;6.07;5.38;;;;;;;;;;8334177;28;20418;-55
2022/04/05 17:16:34;;;;;;;6.75;5.75;;;;;;;;;;8333305;28;20029;-56
2022/04/05 17:20:34;;;;;;;6.80;6.10;;;;;;;;;;8329912;28;20036;-56
2022/04/05 17:24:38;;;;;;;6.45;5.85;;;;;;;;;;8326989;28;20027;-55
2022/04/05 17:28:38;;;;;;;9.27;7.25;;;;;;;;;;8329761;28;20099;-56
2022/04/05 17:32:38;;;;;;;7.47;6.70;;;;;;;;;;8328355;28;20912;-56
2022/04/05 17:36:38;;;;;;;8.55;7.20;;;;;;;;;;8328154;28;20048;-53
2022/04/05 17:40:39;;;;;;;8.65;7.75;;;;;;;;;;8326729;28;20051;-56
2022/04/05 17:44:39;;;;;;;9.63;7.55;;;;;;;;;;8331031;28;20418;-56
2022/04/05 17:48:39;;;;;;;9.25;7.90;;;;;;;;;;8321587;28;20037;-56
2022/04/05 17:52:40;;;;;;;12.57;10.00;;;;;;;;;;8323731;28;20027;-56
2022/04/05 17:56:44;;;;;;;10.70;9.23;;;;;;;;;;8322856;28;20863;-55
2022/04/05 18:00:44;;;;;;;12.63;10.17;;;;;;;;;;8325016;28;20123;-56
2022/04/05 18:04:44;;;;;;;13.05;9.93;;;;;;;;;;8323868;28;20063;-56
2022/04/05 18:08:44;;;;;;;13.05;9.77;;;;;;;;;;8326488;28;20033;-55
2022/04/05 18:12:45;;;;;;;11.63;9.38;;;;;;;;;;8323085;28;20025;-56
2022/04/05 18:16:45;;;;;;;12.48;9.98;;;;;;;;;;8324908;28;20126;-55
2022/04/05 18:20:45;;;;;;;11.32;9.48;;;;;;;;;;8323649;28;20078;-56
2022/04/05 18:24:47;;;;;;;11.05;9.63;;;;;;;;;;8324210;28;20062;-55
2022/04/05 18:28:47;;;;;;;13.43;10.45;;;;;;;;;;8325148;28;20120;-55
2022/04/05 18:32:49;;;;;;;11.52;9.15;;;;;;;;;;8325834;28;20777;-56
2022/04/05 18:36:50;;;;;;;14.55;11.02;;;;;;;;;;8331408;28;20046;-56
2022/04/05 18:40:52;;;;;;;12.73;10.15;;;;;;;;;;8326927;28;20035;-55
2022/04/05 18:44:52;;;;;;;13.98;10.70;;;;;;;;;;8332396;28;20057;-55
2022/04/05 18:48:53;;;;;;;14.15;11.30;;;;;;;;;;8330703;28;20058;-55
2022/04/05 18:52:53;;;;;;;12.20;9.95;;;;;;;;;;8330192;28;20029;-56
2022/04/05 18:56:53;;;;;;;12.07;9.93;;;;;;;;;;8332643;28;20028;-55
2022/04/05 19:00:54;;;;;;;14.95;10.98;;;;;;;;;;8329305;28;20036;-56
2022/04/05 19:04:54;;;;;;;12.82;9.93;;;;;;;;;;8331612;28;20751;-55
2022/04/05 19:08:55;;;;;;;13.43;10.25;;;;;;;;;;8331345;28;20135;-55
2022/04/05 19:12:58;;;;;;;11.85;9.25;;;;;;;;;;8331606;28;20032;-55
2022/04/05 19:16:58;;;;;;;11.40;9.38;;;;;;;;;;8334837;28;20096;-55
2022/04/05 19:20:59;;;;;;;11.73;9.85;;;;;;;;;;8337364;28;20025;-56
2022/04/05 19:24:59;;;;;;;12.10;9.65;;;;;;;;;;8335906;28;20024;-55
2022/04/05 19:28:59;;;;;;;11.07;9.43;;;;;;;;;;8337990;28;20032;-55
2022/04/05 19:33:00;;;;;;;10.85;8.48;;;;;;;;;;8333475;28;20292;-56
2022/04/05 19:37:00;;;;;;;10.75;9.23;;;;;;;;;;8334801;28;20013;-55
2022/04/05 19:41:01;;;;;;;12.20;9.63;;;;;;;;;;8334907;28;20105;-55
2022/04/05 19:45:01;;;;;;;10.32;9.20;;;;;;;;;;8334258;28;20021;-55
2022/04/05 19:49:01;;;;;;;11.43;9.70;;;;;;;;;;8332386;28;20044;-55
2022/04/05 19:53:06;;;;;;;12.02;10.07;;;;;;;;;;8334574;28;20013;-56
2022/04/05 19:57:07;;;;;;;10.80;9.20;;;;;;;;;;8332995;28;20025;-55
2022/04/05 20:01:07;;;;;;;11.33;9.23;;;;;;;;;;8333158;28;20132;-53
2022/04/05 20:05:08;;;;;;;9.97;8.70;;;;;;;;;;8317274;28;20282;-55
2022/04/05 20:09:09;;;;;;;11.98;9.68;;;;;;;;;;8335818;28;20028;-53
2022/04/05 20:13:10;;;;;;;11.63;9.57;;;;;;;;;;8334658;28;20017;-55
2022/04/05 20:21:40;;;;;;;11.15;9.98;;;;;;;;;;8275199;28;20103;-56
2022/04/05 20:25:40;;;;;;;11.75;10.43;;;;;;;;;;8334570;28;20028;-56
2022/04/05 20:29:40;;;;;;;11.48;10.18;;;;;;;;;;8335471;28;20033;-55
2022/04/05 20:33:41;;;;;;;13.60;10.65;;;;;;;;;;8332897;28;20482;-56
2022/04/05 20:37:43;;;;;;;11.48;10.25;;;;;;;;;;8334489;28;20017;-56
2022/04/05 20:41:44;;;;;;;12.73;10.57;;;;;;;;;;8332019;28;20020;-56
2022/04/05 20:45:44;;;;;;;12.00;9.68;;;;;;;;;;8332578;28;20106;-56
2022/04/05 20:49:44;;;;;;;11.68;10.18;;;;;;;;;;8332110;28;20024;-56
2022/04/05 20:53:45;;;;;;;10.70;8.55;;;;;;;;;;8332386;28;20600;-56
2022/04/05 20:57:45;;;;;;;10.88;8.73;;;;;;;;;;8334846;28;21023;-56
2022/04/05 21:01:45;;;;;;;8.82;7.93;;;;;;;;;;8332482;28;20059;-55
2022/04/05 21:05:46;;;;;;;8.80;7.88;;;;;;;;;;8334893;28;20705;-56
2022/04/05 21:09:47;;;;;;;9.00;7.43;;;;;;;;;;8334235;28;20029;-55
2022/04/05 21:13:48;;;;;;;7.88;7.03;;;;;;;;;;8331766;28;20699;-55
2022/04/05 21:17:48;;;;;;;10.60;8.60;;;;;;;;;;8332389;28;20029;-55
2022/04/05 21:21:49;;;;;;;7.43;6.40;;;;;;;;;;8332950;28;20020;-55
2022/04/05 21:25:49;;;;;;;6.95;6.25;;;;;;;;;;8330911;28;20287;-56
2022/04/05 21:29:49;;;;;;;6.53;5.80;;;;;;;;;;8332224;28;20058;-56
2022/04/05 21:33:49;;;;;;;5.68;5.15;;;;;;;;;;8330865;28;20048;-54
2022/04/05 21:37:50;;;;;;;6.13;5.53;;;;;;;;;;8331531;28;20496;-55
2022/04/05 21:41:50;;;;;;;6.25;5.65;;;;;;;;;;8331316;28;20102;-56
2022/04/05 21:45:51;;;;;;;6.45;5.85;;;;;;;;;;8333573;28;20033;-55
2022/04/05 21:49:51;;;;;;;6.28;5.68;;;;;;;;;;8331149;28;20052;-56
2022/04/05 21:53:51;;;;;;;5.47;4.95;;;;;;;;;;8331579;28;20075;-55
2022/04/05 21:57:51;;;;;;;5.50;5.00;;;;;;;;;;8331700;28;20061;-56
2022/04/05 22:01:52;;;;;;;5.10;4.60;;;;;;;;;;8329793;28;20159;-55
2022/04/05 22:05:52;;;;;;;4.90;4.38;;;;;;;;;;8332342;28;20033;-55
2022/04/05 22:09:52;;;;;;;4.70;4.30;;;;;;;;;;8335269;28;20063;-55
2022/04/05 22:13:53;;;;;;;4.60;4.20;;;;;;;;;;8335188;28;20291;-55
2022/04/05 22:17:53;;;;;;;5.25;4.75;;;;;;;;;;8333309;28;20025;-53
2022/04/05 22:21:53;;;;;;;5.63;5.13;;;;;;;;;;8335103;28;20044;-55
2022/04/05 22:25:54;;;;;;;5.20;4.70;;;;;;;;;;8334713;28;20043;-55
2022/04/05 22:29:54;;;;;;;5.40;4.90;;;;;;;;;;8335230;28;20032;-55
2022/04/05 22:33:54;;;;;;;5.40;4.90;;;;;;;;;;8322499;28;20152;-55
2022/04/05 22:37:58;;;;;;;5.53;4.65;;;;;;;;;;8333712;28;20020;-55
2022/04/05 22:41:58;;;;;;;6.15;5.60;;;;;;;;;;8333526;28;20071;-54
2022/04/05 22:45:59;;;;;;;6.30;5.70;;;;;;;;;;8332410;28;20033;-55
2022/04/05 22:49:59;;;;;;;6.65;6.03;;;;;;;;;;8316808;28;20033;-54
2022/04/05 22:54:01;;;;;;;6.97;6.28;;;;;;;;;;8339748;28;20067;-54
2022/04/05 22:58:01;;;;;;;7.90;7.10;;;;;;;;;;8341400;28;20020;-54
2022/04/05 23:02:04;;;;;;;8.65;7.40;;;;;;;;;;8341131;28;20039;-54
2022/04/05 23:06:04;;;;;;;9.55;8.55;;;;;;;;;;8339381;28;20052;-54
2022/04/05 23:10:05;;;;;;;8.93;8.02;;;;;;;;;;8342337;28;20020;-55
2022/04/05 23:14:05;;;;;;;8.07;7.28;;;;;;;;;;8338968;28;20032;-54
2022/04/05 23:18:06;;;;;;;8.35;7.45;;;;;;;;;;8338351;28;20083;-55
2022/04/05 23:22:07;;;;;;;10.63;6.80;;;;;;;;;;8338607;28;20083;-55
2022/04/05 23:26:07;;;;;;;8.33;7.53;;;;;;;;;;8339053;28;20021;-55
2022/04/05 23:30:08;;;;;;;9.45;8.50;;;;;;;;;;8338723;28;20747;-55
2022/04/05 23:34:08;;;;;;;9.23;8.23;;;;;;;;;;8340960;28;20435;-54
2022/04/05 23:38:08;;;;;;;9.52;8.52;;;;;;;;;;8339168;28;20012;-55
2022/04/05 23:42:10;;;;;;;9.73;8.73;;;;;;;;;;8337880;28;20021;-56
2022/04/05 23:46:10;;;;;;;9.55;8.55;;;;;;;;;;8338076;28;20033;-55
2022/04/05 23:50:13;;;;;;;11.77;9.82;;;;;;;;;;8340127;28;20027;-55
2022/04/05 23:54:18;;;;;;;11.13;9.52;;;;;;;;;;8341585;28;20032;-55
2022/04/05 23:58:18;;;;;;;10.48;9.40;;;;;;;;;;8339169;28;20017;-55
